Time;durP1;ratioP1;P1;durP2;ratioP2;P2;SDS_P1;SDS_P2;PMS_P1;PMS_P2;Temp;Humidity;BMP_temperature;BMP_pressure;BME280_temperature;BME280_humidity;BME280_pressure;Samples;Min_cycle;Max_cycle;Signal;HPM_P1;HPM_P2
2023/10/09 00:03:06;;;;;;;14.90;7.28;;;;;;;;;;5046252;28;20489;-76
2023/10/09 00:05:45;;;;;;;17.55;7.65;;;;;;;;;;5049520;28;20032;-75
2023/10/09 00:08:21;;;;;;;15.60;7.03;;;;;;;;;;5048083;28;20040;-76
2023/10/09 00:10:54;;;;;;;13.20;7.07;;;;;;;;;;5054323;28;20052;-75
2023/10/09 00:13:32;;;;;;;15.85;6.75;;;;;;;;;;5064658;28;20283;-74
2023/10/09 00:16:13;;;;;;;13.77;6.70;;;;;;;;;;5055922;28;20149;-82
2023/10/09 00:18:39;;;;;;;15.00;6.72;;;;;;;;;;5052551;28;20055;-74
2023/10/09 00:21:15;;;;;;;14.90;6.63;;;;;;;;;;5062714;28;20542;-75
2023/10/09 00:23:41;;;;;;;13.77;6.13;;;;;;;;;;5059929;28;20039;-74
2023/10/09 00:26:16;;;;;;;14.70;5.93;;;;;;;;;;5061070;28;20045;-75
2023/10/09 00:28:43;;;;;;;14.18;5.93;;;;;;;;;;5058626;28;20033;-74
2023/10/09 00:31:14;;;;;;;11.68;5.40;;;;;;;;;;5065463;28;20092;-75
2023/10/09 00:33:40;;;;;;;13.68;5.80;;;;;;;;;;5054905;28;20551;-74
2023/10/09 00:36:18;;;;;;;12.00;5.20;;;;;;;;;;5051278;28;20028;-74
2023/10/09 00:38:49;;;;;;;14.15;5.47;;;;;;;;;;5047587;28;20055;-74
2023/10/09 00:41:20;;;;;;;12.80;5.75;;;;;;;;;;5056247;28;20078;-75
2023/10/09 00:43:52;;;;;;;12.43;5.43;;;;;;;;;;5056340;28;20027;-74
2023/10/09 00:48:47;;;;;;;12.35;5.68;;;;;;;;;;5051676;28;20048;-74
2023/10/09 00:51:17;;;;;;;9.48;5.72;;;;;;;;;;5060874;28;20099;-77
2023/10/09 00:53:54;;;;;;;13.32;5.53;;;;;;;;;;5047701;28;20491;-75
2023/10/09 00:59:09;;;;;;;13.57;5.68;;;;;;;;;;5051714;28;20024;-75
2023/10/09 01:01:35;;;;;;;13.45;5.78;;;;;;;;;;5051928;28;20017;-74
2023/10/09 01:04:14;;;;;;;13.82;5.45;;;;;;;;;;5044369;28;20863;-75
2023/10/09 01:06:44;;;;;;;12.60;5.78;;;;;;;;;;5056588;28;20048;-75
2023/10/09 01:09:14;;;;;;;14.02;5.78;;;;;;;;;;5050506;28;20696;-75
2023/10/09 01:11:51;;;;;;;11.40;5.47;;;;;;;;;;5050133;28;20017;-74
2023/10/09 01:14:22;;;;;;;12.27;6.03;;;;;;;;;;5052708;28;20036;-76
2023/10/09 01:16:48;;;;;;;14.98;6.10;;;;;;;;;;5042808;28;20362;-74
2023/10/09 01:19:21;;;;;;;12.57;5.68;;;;;;;;;;5039450;28;20025;-75
2023/10/09 01:21:48;;;;;;;18.27;6.35;;;;;;;;;;5047279;28;20031;-74
2023/10/09 01:24:16;;;;;;;15.60;6.05;;;;;;;;;;5035892;28;20041;-76
2023/10/09 01:26:46;;;;;;;14.75;6.13;;;;;;;;;;5053756;28;20046;-75
2023/10/09 01:29:14;;;;;;;15.98;6.25;;;;;;;;;;5054890;28;20016;-74
2023/10/09 01:32:00;;;;;;;12.57;5.55;;;;;;;;;;5049597;28;20497;-75
2023/10/09 01:37:23;;;;;;;10.38;5.43;;;;;;;;;;5048202;28;20035;-76
2023/10/09 01:39:53;;;;;;;10.15;5.15;;;;;;;;;;5047202;28;20025;-73
2023/10/09 01:42:34;;;;;;;9.43;5.10;;;;;;;;;;5048708;28;20016;-76
2023/10/09 01:45:10;;;;;;;11.27;4.88;;;;;;;;;;5046668;28;20028;-75
2023/10/09 01:47:37;;;;;;;13.60;4.95;;;;;;;;;;5050932;28;20033;-74
2023/10/09 01:50:05;;;;;;;11.48;5.38;;;;;;;;;;5041633;28;20037;-75
2023/10/09 01:52:30;;;;;;;10.43;5.13;;;;;;;;;;5050477;28;20434;-74
2023/10/09 01:55:01;;;;;;;16.00;5.35;;;;;;;;;;5038505;28;20092;-74
2023/10/09 01:57:29;;;;;;;15.40;5.90;;;;;;;;;;5047933;28;20020;-74
2023/10/09 01:59:55;;;;;;;12.52;5.03;;;;;;;;;;5034620;28;20699;-74
2023/10/09 02:02:26;;;;;;;9.85;5.05;;;;;;;;;;5056294;28;20036;-74
2023/10/09 02:05:23;;;;;;;13.13;5.35;;;;;;;;;;5045205;28;20025;-74
2023/10/09 02:07:51;;;;;;;11.50;5.10;;;;;;;;;;5047127;28;20457;-74
2023/10/09 02:10:25;;;;;;;12.50;5.47;;;;;;;;;;5060042;28;20262;-74
2023/10/09 02:13:41;;;;;;;17.23;5.63;;;;;;;;;;5051215;28;20051;-74
2023/10/09 02:23:46;;;;;;;12.23;4.95;;;;;;;;;;5050866;28;20045;-74
2023/10/09 02:28:48;;;;;;;8.65;4.75;;;;;;;;;;5048006;28;20494;-75
2023/10/09 02:31:14;;;;;;;11.00;5.20;;;;;;;;;;5042463;28;20462;-74
2023/10/09 02:33:39;;;;;;;11.82;4.82;;;;;;;;;;5067688;28;20103;-73
2023/10/09 02:36:06;;;;;;;11.60;5.13;;;;;;;;;;5051257;28;20107;-74
2023/10/09 02:38:40;;;;;;;10.40;4.93;;;;;;;;;;5048051;28;20032;-74
2023/10/09 02:43:46;;;;;;;10.77;5.00;;;;;;;;;;5054994;28;20026;-74
2023/10/09 02:46:18;;;;;;;14.52;4.60;;;;;;;;;;5049397;28;20025;-73
2023/10/09 02:48:53;;;;;;;10.32;4.38;;;;;;;;;;5044018;28;20392;-74
2023/10/09 02:51:31;;;;;;;12.13;4.78;;;;;;;;;;5046143;28;20097;-74
2023/10/09 02:53:58;;;;;;;11.57;4.97;;;;;;;;;;5051118;28;20033;-74
2023/10/09 02:56:24;;;;;;;12.23;4.38;;;;;;;;;;5054143;28;20062;-74
2023/10/09 02:58:54;;;;;;;11.18;4.65;;;;;;;;;;5037097;28;20081;-74
2023/10/09 03:01:19;;;;;;;10.77;4.60;;;;;;;;;;5047741;28;20086;-74
2023/10/09 03:03:48;;;;;;;12.32;4.90;;;;;;;;;;5046611;28;20033;-73
2023/10/09 03:06:28;;;;;;;8.68;4.45;;;;;;;;;;5049481;28;20072;-75
2023/10/09 03:08:54;;;;;;;11.35;4.40;;;;;;;;;;5045912;28;20090;-74
2023/10/09 03:11:20;;;;;;;10.43;4.55;;;;;;;;;;5059678;28;20024;-75
2023/10/09 03:13:47;;;;;;;11.35;4.72;;;;;;;;;;5051637;28;20036;-74
2023/10/09 03:16:21;;;;;;;11.57;5.00;;;;;;;;;;5050732;28;20184;-76
2023/10/09 03:18:52;;;;;;;9.23;4.38;;;;;;;;;;5047156;28;20025;-74
2023/10/09 03:21:18;;;;;;;8.93;4.38;;;;;;;;;;5051871;28;20047;-75
2023/10/09 03:23:50;;;;;;;13.57;4.38;;;;;;;;;;5058125;28;20028;-74
2023/10/09 03:26:20;;;;;;;13.70;4.88;;;;;;;;;;5048110;28;20040;-75
2023/10/09 03:28:49;;;;;;;11.68;4.60;;;;;;;;;;5049940;28;20024;-75
2023/10/09 03:31:14;;;;;;;8.05;4.13;;;;;;;;;;5051248;28;20109;-75
2023/10/09 03:33:40;;;;;;;12.00;4.22;;;;;;;;;;5050702;28;20826;-74
2023/10/09 03:36:09;;;;;;;11.95;4.50;;;;;;;;;;5050029;28;20016;-75
2023/10/09 03:38:38;;;;;;;9.77;4.47;;;;;;;;;;5046681;28;20202;-75
2023/10/09 03:41:05;;;;;;;10.20;4.20;;;;;;;;;;5047384;28;20029;-75
2023/10/09 03:43:46;;;;;;;10.90;4.05;;;;;;;;;;5050763;28;20024;-74
2023/10/09 03:48:47;;;;;;;10.02;4.35;;;;;;;;;;5046342;28;20041;-74
2023/10/09 03:51:20;;;;;;;9.80;4.00;;;;;;;;;;5060490;28;20099;-75
2023/10/09 03:53:47;;;;;;;8.98;4.10;;;;;;;;;;5063208;28;20013;-74
2023/10/09 03:56:12;;;;;;;12.73;4.43;;;;;;;;;;5054162;28;20024;-74
2023/10/09 03:58:39;;;;;;;12.88;4.47;;;;;;;;;;5051877;28;20818;-74
2023/10/09 04:03:47;;;;;;;13.20;5.10;;;;;;;;;;5053338;28;20032;-74
2023/10/09 04:06:12;;;;;;;15.45;5.15;;;;;;;;;;5062023;28;20028;-75
2023/10/09 04:08:44;;;;;;;12.40;4.50;;;;;;;;;;5045225;28;20020;-74
2023/10/09 04:11:16;;;;;;;13.38;4.30;;;;;;;;;;5047150;28;20042;-74
2023/10/09 04:13:49;;;;;;;12.25;4.50;;;;;;;;;;5050314;28;20036;-75
2023/10/09 04:16:33;;;;;;;11.20;4.32;;;;;;;;;;5055027;28;20024;-75
2023/10/09 04:18:59;;;;;;;12.30;4.38;;;;;;;;;;5042080;28;20081;-75
2023/10/09 04:21:35;;;;;;;10.48;4.72;;;;;;;;;;5043485;28;20020;-74
2023/10/09 04:26:45;;;;;;;10.55;4.32;;;;;;;;;;5044225;28;20118;-74
2023/10/09 04:29:23;;;;;;;11.65;4.55;;;;;;;;;;5056186;28;20032;-75
2023/10/09 04:31:51;;;;;;;9.98;4.47;;;;;;;;;;5055683;28;20724;-74
2023/10/09 04:34:28;;;;;;;10.18;4.38;;;;;;;;;;5052737;28;20542;-75
2023/10/09 04:37:36;;;;;;;13.25;4.57;;;;;;;;;;5039253;28;20024;-74
2023/10/09 04:40:11;;;;;;;11.63;4.28;;;;;;;;;;5051049;28;20487;-74
2023/10/09 04:42:37;;;;;;;14.73;4.53;;;;;;;;;;5050071;28;20591;-74
2023/10/09 04:47:37;;;;;;;9.50;4.40;;;;;;;;;;5049674;28;20622;-75
2023/10/09 04:52:51;;;;;;;10.65;4.50;;;;;;;;;;5046400;28;20034;-74
2023/10/09 04:55:24;;;;;;;14.93;4.50;;;;;;;;;;5050811;28;20028;-75
2023/10/09 04:58:00;;;;;;;12.40;4.15;;;;;;;;;;5048293;28;20036;-75
2023/10/09 05:02:58;;;;;;;10.52;4.47;;;;;;;;;;5047124;28;20109;-75
2023/10/09 05:08:28;;;;;;;12.43;5.10;;;;;;;;;;5041561;28;20024;-74
2023/10/09 05:16:28;;;;;;;9.95;4.63;;;;;;;;;;5055792;28;20056;-75
2023/10/09 05:19:28;;;;;;;9.20;4.13;;;;;;;;;;5051410;28;20127;-74
2023/10/09 05:21:58;;;;;;;13.45;4.53;;;;;;;;;;5048848;28;20058;-75
2023/10/09 05:24:26;;;;;;;11.60;4.55;;;;;;;;;;5044306;28;20826;-76
2023/10/09 05:26:52;;;;;;;9.23;4.15;;;;;;;;;;5050792;28;20032;-74
2023/10/09 05:34:34;;;;;;;8.70;4.10;;;;;;;;;;5053490;28;20032;-74
2023/10/09 05:37:24;;;;;;;9.35;4.32;;;;;;;;;;5048116;28;20094;-75
2023/10/09 05:50:34;;;;;;;10.60;4.50;;;;;;;;;;5016256;28;20040;-78
2023/10/09 06:06:36;;;;;;;12.13;4.45;;;;;;;;;;5042403;28;20576;-80
2023/10/09 06:11:55;;;;;;;10.27;4.60;;;;;;;;;;5048718;28;20487;-80
2023/10/09 06:19:27;;;;;;;12.50;4.32;;;;;;;;;;5049136;28;20044;-81
2023/10/09 06:24:54;;;;;;;13.77;4.72;;;;;;;;;;5045267;28;20012;-79
2023/10/09 06:30:46;;;;;;;15.13;5.10;;;;;;;;;;5042936;28;20093;-80
2023/10/09 06:32:51;;;;;;;11.35;4.63;;;;;;;;;;5047481;28;20037;-79
2023/10/09 06:43:08;;;;;;;11.65;4.78;;;;;;;;;;5036252;28;20025;-79
2023/10/09 06:45:44;;;;;;;16.20;5.25;;;;;;;;;;5048280;28;20028;-79
2023/10/09 06:48:44;;;;;;;16.42;5.78;;;;;;;;;;5029371;28;20145;-78
2023/10/09 06:54:09;;;;;;;12.02;5.18;;;;;;;;;;5050075;28;20081;-77
2023/10/09 06:59:04;;;;;;;17.10;5.90;;;;;;;;;;5041136;28;19905;-76
2023/10/09 07:01:43;;;;;;;13.60;5.18;;;;;;;;;;5041426;28;20465;-76
2023/10/09 07:04:19;;;;;;;18.52;6.97;;;;;;;;;;5037824;28;20028;-77
2023/10/09 07:17:26;;;;;;;26.00;7.32;;;;;;;;;;5014094;28;20351;-76
2023/10/09 07:24:58;;;;;;;13.70;5.05;;;;;;;;;;5046552;28;20013;-76
2023/10/09 07:30:35;;;;;;;14.88;5.57;;;;;;;;;;5048675;28;20804;-75
2023/10/09 07:38:14;;;;;;;12.30;4.75;;;;;;;;;;5050705;28;20040;-76
2023/10/09 07:40:56;;;;;;;14.60;5.20;;;;;;;;;;5058404;28;20621;-75
2023/10/09 07:43:27;;;;;;;10.85;4.88;;;;;;;;;;5053291;28;20032;-76
2023/10/09 07:48:38;;;;;;;20.13;5.80;;;;;;;;;;5051418;28;20056;-76
2023/10/09 07:51:12;;;;;;;16.30;5.60;;;;;;;;;;5052880;28;20051;-75
2023/10/09 07:53:44;;;;;;;15.77;5.30;;;;;;;;;;5051504;28;20195;-76
2023/10/09 07:56:13;;;;;;;14.05;5.90;;;;;;;;;;5049943;28;20257;-76
2023/10/09 07:58:48;;;;;;;20.48;6.00;;;;;;;;;;5049063;28;20077;-76
2023/10/09 08:01:34;;;;;;;14.18;5.68;;;;;;;;;;5046753;28;20029;-76
2023/10/09 08:04:13;;;;;;;12.43;5.85;;;;;;;;;;5043727;28;20019;-76
2023/10/09 08:06:44;;;;;;;19.38;5.63;;;;;;;;;;5039120;28;20732;-75
2023/10/09 08:16:47;;;;;;;18.23;6.10;;;;;;;;;;5048983;28;20044;-75
2023/10/09 08:24:55;;;;;;;16.67;6.22;;;;;;;;;;5037528;28;20116;-75
2023/10/09 08:32:40;;;;;;;16.77;7.00;;;;;;;;;;5039003;28;20021;-75
2023/10/09 08:37:50;;;;;;;20.77;7.45;;;;;;;;;;5045976;28;20055;-75
2023/10/09 08:40:20;;;;;;;18.92;7.00;;;;;;;;;;5051818;28;20823;-76
2023/10/09 08:42:54;;;;;;;23.30;7.20;;;;;;;;;;5033181;28;20029;-76
2023/10/09 08:45:27;;;;;;;17.55;7.30;;;;;;;;;;5040631;28;20131;-76
2023/10/09 08:47:56;;;;;;;17.73;7.00;;;;;;;;;;5048035;28;20599;-75
2023/10/09 08:50:21;;;;;;;18.92;8.23;;;;;;;;;;5050903;28;20720;-76
2023/10/09 08:52:51;;;;;;;19.48;8.20;;;;;;;;;;5048457;28;20024;-76
2023/10/09 08:55:17;;;;;;;20.20;7.68;;;;;;;;;;5049189;28;20032;-76
2023/10/09 08:57:46;;;;;;;31.02;7.72;;;;;;;;;;5046538;28;20024;-77
2023/10/09 09:00:23;;;;;;;17.25;7.80;;;;;;;;;;5043817;28;20706;-77
2023/10/09 09:02:50;;;;;;;16.90;7.57;;;;;;;;;;5036686;28;20040;-77
2023/10/09 09:05:23;;;;;;;19.20;8.38;;;;;;;;;;5048691;28;20103;-77
2023/10/09 09:07:49;;;;;;;19.60;7.10;;;;;;;;;;5045881;28;20039;-76
2023/10/09 09:10:17;;;;;;;20.05;7.30;;;;;;;;;;5049517;28;20020;-78
2023/10/09 09:12:46;;;;;;;18.42;7.00;;;;;;;;;;5048145;28;20105;-77
2023/10/09 09:15:19;;;;;;;15.10;6.88;;;;;;;;;;5051771;28;20170;-77
2023/10/09 09:17:45;;;;;;;18.17;7.28;;;;;;;;;;5052657;28;20062;-77
2023/10/09 09:20:30;;;;;;;19.55;6.95;;;;;;;;;;5042622;28;20024;-77
2023/10/09 09:22:56;;;;;;;20.23;7.27;;;;;;;;;;5045867;28;20020;-78
2023/10/09 09:25:24;;;;;;;16.67;6.95;;;;;;;;;;5047177;28;20030;-77
2023/10/09 09:27:52;;;;;;;19.83;7.00;;;;;;;;;;5041691;28;20024;-77
2023/10/09 09:30:35;;;;;;;15.95;6.47;;;;;;;;;;5046327;28;20503;-77
2023/10/09 09:33:26;;;;;;;20.52;7.03;;;;;;;;;;5043983;28;20636;-78
2023/10/09 09:36:02;;;;;;;21.95;6.28;;;;;;;;;;5049862;28;20036;-77
2023/10/09 09:38:29;;;;;;;18.83;6.03;;;;;;;;;;5046996;28;20051;-77
2023/10/09 09:41:02;;;;;;;19.50;5.93;;;;;;;;;;5045414;28;20101;-76
2023/10/09 09:43:30;;;;;;;16.38;5.63;;;;;;;;;;5049873;28;20029;-77
2023/10/09 09:45:56;;;;;;;17.00;6.00;;;;;;;;;;5039792;28;20621;-77
2023/10/09 09:48:23;;;;;;;16.30;6.20;;;;;;;;;;5051050;28;20429;-76
2023/10/09 09:50:54;;;;;;;14.35;5.65;;;;;;;;;;5044512;28;20031;-76
2023/10/09 09:53:23;;;;;;;16.52;5.85;;;;;;;;;;5052380;28;20031;-78
2023/10/09 09:55:58;;;;;;;16.42;6.07;;;;;;;;;;5048325;28;20025;-76
2023/10/09 09:58:27;;;;;;;13.60;5.75;;;;;;;;;;5047228;28;20028;-77
2023/10/09 10:00:57;;;;;;;17.00;5.95;;;;;;;;;;5041758;28;20127;-76
2023/10/09 10:03:29;;;;;;;19.08;5.50;;;;;;;;;;5039740;28;20024;-76
2023/10/09 10:05:56;;;;;;;14.32;5.65;;;;;;;;;;5042677;28;20032;-76
2023/10/09 10:08:31;;;;;;;14.82;5.53;;;;;;;;;;5048790;28;20162;-77
2023/10/09 10:11:05;;;;;;;13.35;5.90;;;;;;;;;;5043575;28;20025;-77
2023/10/09 10:13:40;;;;;;;18.77;5.68;;;;;;;;;;5050159;28;20121;-78
2023/10/09 10:19:21;;;;;;;14.45;5.32;;;;;;;;;;5047633;28;20024;-77
2023/10/09 10:21:50;;;;;;;11.77;5.15;;;;;;;;;;5035303;28;20024;-76
2023/10/09 10:27:27;;;;;;;11.20;4.90;;;;;;;;;;5050462;28;20799;-75
2023/10/09 10:30:14;;;;;;;14.65;5.15;;;;;;;;;;5045379;28;20033;-75
2023/10/09 10:32:51;;;;;;;11.75;4.93;;;;;;;;;;5034381;28;20020;-76
2023/10/09 10:35:20;;;;;;;14.15;4.72;;;;;;;;;;5045932;28;20039;-74
2023/10/09 10:38:00;;;;;;;11.20;4.53;;;;;;;;;;5047882;28;20024;-76
2023/10/09 10:40:40;;;;;;;12.75;4.22;;;;;;;;;;5052385;28;20059;-77
2023/10/09 10:43:13;;;;;;;12.95;4.43;;;;;;;;;;5046309;28;20036;-76
2023/10/09 10:45:44;;;;;;;10.13;4.65;;;;;;;;;;5050483;28;20017;-77
2023/10/09 10:48:22;;;;;;;13.80;4.45;;;;;;;;;;5046311;28;20077;-76
2023/10/09 10:50:57;;;;;;;11.18;4.47;;;;;;;;;;5047258;28;20024;-76
2023/10/09 10:53:27;;;;;;;14.10;4.78;;;;;;;;;;5052922;28;20032;-78
2023/10/09 10:59:09;;;;;;;13.20;4.85;;;;;;;;;;5046413;28;20575;-76
2023/10/09 11:04:24;;;;;;;15.88;4.30;;;;;;;;;;5045399;28;19959;-76
2023/10/09 11:07:00;;;;;;;12.68;4.28;;;;;;;;;;5044413;28;20397;-76
2023/10/09 11:09:35;;;;;;;13.07;4.00;;;;;;;;;;5047368;28;20037;-77
2023/10/09 11:12:12;;;;;;;;;;;;;;;;;;5044845;28;20017;-77
2023/10/09 11:15:06;;;;;;;12.80;4.43;;;;;;;;;;5046194;28;19909;-76
2023/10/09 11:17:35;;;;;;;10.50;4.50;;;;;;;;;;5053377;28;20028;-74
2023/10/09 11:20:26;;;;;;;10.57;5.00;;;;;;;;;;5050170;28;20771;-77
2023/10/09 11:25:33;;;;;;;10.60;4.18;;;;;;;;;;5054174;28;20040;-77
2023/10/09 11:28:15;;;;;;;11.88;3.92;;;;;;;;;;5047971;28;20065;-76
2023/10/09 11:30:40;;;;;;;9.55;3.97;;;;;;;;;;5048588;28;20074;-76
2023/10/09 11:33:13;;;;;;;10.20;3.83;;;;;;;;;;5037955;28;20021;-76
2023/10/09 11:35:41;;;;;;;12.05;4.18;;;;;;;;;;5051819;28;20032;-77
2023/10/09 11:38:20;;;;;;;11.63;4.10;;;;;;;;;;5049840;28;20033;-77
2023/10/09 11:43:24;;;;;;;13.73;4.18;;;;;;;;;;5051977;28;20039;-77
2023/10/09 11:45:56;;;;;;;10.82;3.95;;;;;;;;;;5052264;28;20039;-76
2023/10/09 11:48:33;;;;;;;9.05;3.40;;;;;;;;;;5051755;28;20036;-77
2023/10/09 11:55:52;;;;;;;14.80;3.88;;;;;;;;;;5049014;28;20029;-76
2023/10/09 11:58:24;;;;;;;9.77;3.55;;;;;;;;;;5050601;28;20027;-78
2023/10/09 12:00:59;;;;;;;9.80;4.10;;;;;;;;;;5044098;28;20025;-77
2023/10/09 12:03:30;;;;;;;11.02;4.25;;;;;;;;;;5042508;28;20495;-77
2023/10/09 12:06:05;;;;;;;11.52;3.95;;;;;;;;;;5050472;28;20062;-76
2023/10/09 12:08:34;;;;;;;12.48;4.40;;;;;;;;;;5052253;28;20036;-75
2023/10/09 12:11:03;;;;;;;8.77;3.80;;;;;;;;;;5044772;28;20177;-76
2023/10/09 12:13:29;;;;;;;8.60;4.03;;;;;;;;;;5053355;28;20107;-75
2023/10/09 12:15:54;;;;;;;9.65;3.70;;;;;;;;;;5047739;28;20178;-75
2023/10/09 12:18:21;;;;;;;13.57;4.43;;;;;;;;;;5051162;28;20056;-76
2023/10/09 12:21:02;;;;;;;8.35;3.65;;;;;;;;;;5052880;28;20109;-75
2023/10/09 12:23:27;;;;;;;8.70;3.53;;;;;;;;;;5050646;28;20484;-77
2023/10/09 12:25:56;;;;;;;9.40;3.90;;;;;;;;;;5047960;28;20024;-76
2023/10/09 12:28:22;;;;;;;12.20;3.90;;;;;;;;;;5050610;28;20416;-77
2023/10/09 12:30:52;;;;;;;8.07;3.45;;;;;;;;;;5044903;28;20016;-77
2023/10/09 12:33:19;;;;;;;8.48;3.47;;;;;;;;;;5041374;28;20025;-78
2023/10/09 12:35:48;;;;;;;10.77;4.00;;;;;;;;;;5049763;28;20483;-76
2023/10/09 12:38:18;;;;;;;11.82;4.05;;;;;;;;;;5052822;28;20063;-76
2023/10/09 12:40:50;;;;;;;12.13;3.88;;;;;;;;;;5051660;28;20496;-77
2023/10/09 12:43:19;;;;;;;8.80;3.88;;;;;;;;;;5046892;28;20417;-77
2023/10/09 12:45:45;;;;;;;9.65;3.75;;;;;;;;;;5048559;28;20055;-77
2023/10/09 12:48:12;;;;;;;11.10;3.70;;;;;;;;;;5052633;28;20052;-77
2023/10/09 12:50:46;;;;;;;7.78;3.60;;;;;;;;;;5051863;28;20281;-77
2023/10/09 12:53:17;;;;;;;9.40;4.00;;;;;;;;;;5050446;28;20025;-76
2023/10/09 12:55:42;;;;;;;10.35;3.70;;;;;;;;;;5044569;28;20028;-77
2023/10/09 12:58:14;;;;;;;28.15;4.72;;;;;;;;;;5049642;28;20543;-78
2023/10/09 13:00:44;;;;;;;13.68;4.25;;;;;;;;;;5050811;28;20035;-77
2023/10/09 13:03:16;;;;;;;11.48;3.92;;;;;;;;;;5046212;28;20700;-76
2023/10/09 13:05:54;;;;;;;9.15;3.72;;;;;;;;;;5040206;28;20110;-76
2023/10/09 13:08:34;;;;;;;10.77;4.00;;;;;;;;;;5040304;28;20146;-78
2023/10/09 13:11:12;;;;;;;11.73;4.15;;;;;;;;;;5044986;28;20142;-77
2023/10/09 13:13:41;;;;;;;9.63;4.03;;;;;;;;;;5051464;28;20025;-76
2023/10/09 13:16:12;;;;;;;11.07;3.95;;;;;;;;;;5054722;28;20051;-76
2023/10/09 13:18:49;;;;;;;8.60;4.20;;;;;;;;;;5050409;28;20086;-77
2023/10/09 13:21:26;;;;;;;9.35;4.22;;;;;;;;;;5046436;28;20051;-79
2023/10/09 13:23:52;;;;;;;12.77;3.90;;;;;;;;;;5046697;28;20095;-80
2023/10/09 13:26:18;;;;;;;8.10;3.85;;;;;;;;;;5048509;28;20032;-79
2023/10/09 13:28:45;;;;;;;11.50;4.00;;;;;;;;;;5044551;28;20103;-78
2023/10/09 13:31:13;;;;;;;9.38;3.88;;;;;;;;;;5049146;28;20020;-78
2023/10/09 13:33:40;;;;;;;9.15;3.95;;;;;;;;;;5047991;28;20056;-78
2023/10/09 13:36:16;;;;;;;13.18;4.07;;;;;;;;;;5035745;28;20024;-79
2023/10/09 13:38:45;;;;;;;7.90;3.85;;;;;;;;;;5041743;28;20047;-79
2023/10/09 13:41:12;;;;;;;12.35;4.15;;;;;;;;;;5042257;28;20029;-78
2023/10/09 13:43:42;;;;;;;9.18;3.47;;;;;;;;;;5052433;28;20027;-78
2023/10/09 13:46:09;;;;;;;9.07;4.10;;;;;;;;;;5057325;28;20090;-79
2023/10/09 13:48:38;;;;;;;13.25;4.32;;;;;;;;;;5049726;28;20072;-80
2023/10/09 13:51:07;;;;;;;8.48;3.90;;;;;;;;;;5040438;28;20097;-80
2023/10/09 13:53:35;;;;;;;10.40;4.00;;;;;;;;;;5042613;28;20108;-79
2023/10/09 13:56:02;;;;;;;8.70;3.90;;;;;;;;;;5039422;28;20024;-80
2023/10/09 13:58:28;;;;;;;12.25;3.78;;;;;;;;;;5046829;28;20023;-80
2023/10/09 14:00:53;;;;;;;11.93;4.35;;;;;;;;;;5047276;28;20020;-79
2023/10/09 14:03:23;;;;;;;11.50;5.43;;;;;;;;;;5056060;28;20025;-80
2023/10/09 14:05:56;;;;;;;11.25;3.85;;;;;;;;;;5052571;28;20481;-80
2023/10/09 14:08:22;;;;;;;9.80;4.32;;;;;;;;;;5042902;28;20102;-80
2023/10/09 14:10:51;;;;;;;8.23;4.00;;;;;;;;;;5055571;28;20111;-80
2023/10/09 14:13:17;;;;;;;9.60;4.05;;;;;;;;;;5051087;28;20052;-80
2023/10/09 14:15:45;;;;;;;9.40;4.20;;;;;;;;;;5052324;28;20032;-80
2023/10/09 14:18:11;;;;;;;12.65;4.60;;;;;;;;;;5052904;28;20614;-80
2023/10/09 14:20:41;;;;;;;8.25;4.07;;;;;;;;;;5060108;28;20328;-80
2023/10/09 14:23:07;;;;;;;9.82;4.25;;;;;;;;;;5063726;28;20100;-80
2023/10/09 14:25:43;;;;;;;8.10;4.10;;;;;;;;;;5061324;28;20039;-80
2023/10/09 14:28:09;;;;;;;9.35;4.40;;;;;;;;;;5052763;28;20028;-80
2023/10/09 14:30:44;;;;;;;10.73;4.32;;;;;;;;;;5060729;28;20062;-80
2023/10/09 14:33:14;;;;;;;9.88;3.80;;;;;;;;;;5062214;28;20021;-80
2023/10/09 14:35:40;;;;;;;9.73;4.15;;;;;;;;;;5057387;28;20246;-80
2023/10/09 14:38:12;;;;;;;13.38;3.83;;;;;;;;;;5057433;28;20032;-79
2023/10/09 14:40:41;;;;;;;10.82;4.00;;;;;;;;;;5061731;28;20041;-79
2023/10/09 14:43:18;;;;;;;11.15;3.95;;;;;;;;;;5060219;28;20121;-79
2023/10/09 14:45:48;;;;;;;11.93;4.00;;;;;;;;;;5061795;28;20028;-79
2023/10/09 14:48:14;;;;;;;10.02;4.05;;;;;;;;;;5064301;28;20044;-80
2023/10/09 14:50:49;;;;;;;11.63;4.03;;;;;;;;;;5063677;28;20108;-80
2023/10/09 14:53:16;;;;;;;;;;;;;;;;;;5067437;28;20198;-80
2023/10/09 14:55:45;;;;;;;8.02;3.80;;;;;;;;;;5065604;28;19924;-79
2023/10/09 14:58:11;;;;;;;9.82;4.03;;;;;;;;;;5064390;28;20028;-79
2023/10/09 15:00:36;;;;;;;9.25;3.70;;;;;;;;;;5059153;28;20031;-79
2023/10/09 15:03:03;;;;;;;9.68;3.78;;;;;;;;;;5063031;28;20025;-80
2023/10/09 15:05:31;;;;;;;9.80;4.03;;;;;;;;;;5051767;28;20057;-80
2023/10/09 15:07:57;;;;;;;8.82;4.00;;;;;;;;;;5062003;28;20619;-79
2023/10/09 15:10:24;;;;;;;8.07;3.83;;;;;;;;;;5069134;28;20170;-79
2023/10/09 15:12:49;;;;;;;10.52;4.30;;;;;;;;;;5060895;28;20020;-79
2023/10/09 15:15:15;;;;;;;17.30;7.90;;;;;;;;;;5053120;28;20043;-79
2023/10/09 15:17:45;;;;;;;14.25;5.80;;;;;;;;;;5059187;28;20091;-79
2023/10/09 15:20:14;;;;;;;18.13;6.60;;;;;;;;;;5064596;28;20039;-80
2023/10/09 15:22:44;;;;;;;23.77;8.35;;;;;;;;;;5064166;28;20049;-80
2023/10/09 15:25:17;;;;;;;26.20;9.43;;;;;;;;;;5067873;28;20047;-79
2023/10/09 15:27:45;;;;;;;19.75;7.72;;;;;;;;;;5064816;28;20111;-79
2023/10/09 15:30:14;;;;;;;19.10;7.40;;;;;;;;;;5066667;28;20012;-80
2023/10/09 15:32:41;;;;;;;19.90;7.53;;;;;;;;;;5066960;28;20216;-79
2023/10/09 15:35:09;;;;;;;18.92;6.82;;;;;;;;;;5054787;28;20426;-79
2023/10/09 15:37:36;;;;;;;18.65;7.38;;;;;;;;;;5062770;28;20048;-81
2023/10/09 15:40:13;;;;;;;21.38;8.35;;;;;;;;;;5069186;28;20097;-81
2023/10/09 15:42:43;;;;;;;18.00;7.93;;;;;;;;;;5058462;28;20032;-78
2023/10/09 15:45:08;;;;;;;21.60;7.63;;;;;;;;;;5060554;28;20039;-80
2023/10/09 15:47:36;;;;;;;19.17;7.55;;;;;;;;;;5066837;28;20052;-78
2023/10/09 15:50:09;;;;;;;16.38;6.47;;;;;;;;;;5059705;28;20052;-80
2023/10/09 15:52:34;;;;;;;19.95;7.03;;;;;;;;;;5066153;28;20248;-80
2023/10/09 15:55:00;;;;;;;16.10;6.65;;;;;;;;;;5047427;28;20025;-83
2023/10/09 15:57:27;;;;;;;15.93;6.85;;;;;;;;;;5066804;28;20316;-77
2023/10/09 15:59:52;;;;;;;18.05;6.97;;;;;;;;;;5052492;28;20221;-77
2023/10/09 16:02:17;;;;;;;19.42;6.85;;;;;;;;;;5054815;28;20042;-79
2023/10/09 16:04:44;;;;;;;20.23;6.78;;;;;;;;;;5044721;28;20040;-78
2023/10/09 16:07:10;;;;;;;14.35;6.07;;;;;;;;;;5053048;28;20029;-78
2023/10/09 16:09:39;;;;;;;13.80;6.22;;;;;;;;;;5062465;28;20030;-78
2023/10/09 16:12:08;;;;;;;18.65;9.20;;;;;;;;;;5056371;28;20029;-79
2023/10/09 16:14:34;;;;;;;18.73;8.25;;;;;;;;;;5059328;28;20039;-80
2023/10/09 16:17:01;;;;;;;13.65;6.97;;;;;;;;;;5054217;28;20059;-78
2023/10/09 16:19:32;;;;;;;17.15;7.00;;;;;;;;;;5060931;28;20213;-78
2023/10/09 16:22:03;;;;;;;16.63;6.47;;;;;;;;;;5049366;28;20102;-82
2023/10/09 16:24:35;;;;;;;20.70;7.32;;;;;;;;;;5072393;28;20362;-78
2023/10/09 16:27:01;;;;;;;18.45;6.55;;;;;;;;;;5060896;28;20205;-81
2023/10/09 16:29:27;;;;;;;14.88;6.00;;;;;;;;;;5070067;28;20043;-82
2023/10/09 16:31:55;;;;;;;14.30;5.78;;;;;;;;;;5058530;28;20079;-78
2023/10/09 16:34:20;;;;;;;14.75;5.78;;;;;;;;;;5054608;28;20029;-81
2023/10/09 16:36:46;;;;;;;19.20;5.70;;;;;;;;;;5059483;28;20027;-78
2023/10/09 16:39:24;;;;;;;15.68;6.43;;;;;;;;;;5052629;28;20437;-81
2023/10/09 16:41:49;;;;;;;15.30;5.97;;;;;;;;;;5060590;28;20455;-78
2023/10/09 16:44:18;;;;;;;11.52;5.57;;;;;;;;;;5053334;28;20329;-82
2023/10/09 16:46:47;;;;;;;11.52;5.25;;;;;;;;;;5047284;28;20024;-79
2023/10/09 16:49:13;;;;;;;12.23;5.75;;;;;;;;;;5046811;28;20048;-81
2023/10/09 16:51:42;;;;;;;9.52;5.03;;;;;;;;;;5049111;28;20029;-79
2023/10/09 16:54:10;;;;;;;12.90;5.20;;;;;;;;;;5052222;28;20113;-80
2023/10/09 16:56:42;;;;;;;14.43;5.30;;;;;;;;;;5054662;28;20040;-78
2023/10/09 16:59:13;;;;;;;12.52;4.85;;;;;;;;;;5055799;28;20102;-77
2023/10/09 17:01:39;;;;;;;10.70;4.78;;;;;;;;;;5052728;28;20031;-79
2023/10/09 17:04:05;;;;;;;17.17;5.20;;;;;;;;;;5054288;28;20020;-81
2023/10/09 17:06:31;;;;;;;12.73;4.95;;;;;;;;;;5057894;28;20043;-79
2023/10/09 17:08:57;;;;;;;12.30;5.05;;;;;;;;;;5045731;28;20333;-81
2023/10/09 17:11:24;;;;;;;13.88;5.70;;;;;;;;;;5070100;28;20048;-81
2023/10/09 17:13:49;;;;;;;13.18;5.60;;;;;;;;;;5052033;28;20032;-79
2023/10/09 17:16:21;;;;;;;10.32;5.10;;;;;;;;;;5050515;28;20062;-83
2023/10/09 17:18:54;;;;;;;10.45;5.40;;;;;;;;;;5050953;28;20213;-79
2023/10/09 17:21:23;;;;;;;13.02;4.95;;;;;;;;;;5057673;28;20345;-81
2023/10/09 17:23:51;;;;;;;13.85;5.65;;;;;;;;;;5052862;28;20064;-80
2023/10/09 17:26:19;;;;;;;10.88;5.05;;;;;;;;;;5050597;28;20035;-84
2023/10/09 17:28:48;;;;;;;12.93;5.10;;;;;;;;;;5043923;28;20021;-80
2023/10/09 17:31:19;;;;;;;13.63;5.35;;;;;;;;;;5058160;28;20033;-83
2023/10/09 17:34:08;;;;;;;12.57;5.55;;;;;;;;;;5044438;28;20422;-82
2023/10/09 17:36:34;;;;;;;9.40;4.97;;;;;;;;;;5026761;28;20029;-79
2023/10/09 17:42:53;;;;;;;12.90;5.20;;;;;;;;;;5025484;22;20061;-84
2023/10/09 17:45:22;;;;;;;11.23;5.18;;;;;;;;;;4971670;28;20046;-83
2023/10/09 17:47:48;;;;;;;13.88;5.90;;;;;;;;;;4978767;28;20038;-79
2023/10/09 17:50:14;;;;;;;18.35;6.25;;;;;;;;;;4967927;28;20045;-82
2023/10/09 17:52:39;;;;;;;13.57;6.45;;;;;;;;;;4972844;28;20022;-85